Time;durP1;ratioP1;P1;durP2;ratioP2;P2;SDS_P1;SDS_P2;PMS_P1;PMS_P2;Temp;Humidity;BMP_temperature;BMP_pressure;BME280_temperature;BME280_humidity;BME280_pressure;Samples;Min_cycle;Max_cycle;Signal;HPM_P1;HPM_P2
2022/06/27 00:01:19;;;;;;;7.35;4.20;;;;;;;17.88;75.74;101488.22;4993884;28;20045;-36
2022/06/27 00:03:44;;;;;;;18.00;5.07;;;;;;;17.86;75.40;101498.09;4993514;28;20061;-35
2022/06/27 00:06:10;;;;;;;9.18;4.85;;;;;;;17.83;76.02;101498.53;4996699;28;20026;-36
2022/06/27 00:08:35;;;;;;;8.02;4.38;;;;;;;17.85;75.76;101499.91;4998157;28;20076;-35
2022/06/27 00:11:02;;;;;;;10.20;4.75;;;;;;;17.90;74.67;101504.50;4998067;28;20373;-35
2022/06/27 00:13:27;;;;;;;10.05;4.82;;;;;;;17.79;75.51;101513.84;4997977;28;20112;-35
2022/06/27 00:15:52;;;;;;;15.65;4.90;;;;;;;17.52;76.12;101511.47;4996473;28;20118;-35
2022/06/27 00:18:18;;;;;;;12.38;5.00;;;;;;;17.41;77.05;101517.41;4997943;28;20480;-35
2022/06/27 00:20:43;;;;;;;10.85;4.40;;;;;;;17.42;77.02;101520.81;4997917;28;20022;-35
2022/06/27 00:23:08;;;;;;;9.02;4.75;;;;;;;17.27;77.43;101521.91;4997638;28;20060;-34
2022/06/27 00:25:34;;;;;;;7.68;4.47;;;;;;;17.24;78.84;101519.75;4997554;28;20025;-36
2022/06/27 00:27:59;;;;;;;7.90;4.82;;;;;;;17.34;78.70;101514.81;4997837;28;20093;-35
2022/06/27 00:30:24;;;;;;;7.35;4.40;;;;;;;17.42;78.75;101498.09;4997606;28;20026;-35
2022/06/27 00:32:50;;;;;;;9.43;4.50;;;;;;;17.53;78.02;101502.59;4997872;28;20417;-35
2022/06/27 00:35:15;;;;;;;11.77;4.65;;;;;;;17.65;77.61;101502.69;4979933;28;20022;-35
2022/06/27 00:37:40;;;;;;;11.25;4.95;;;;;;;17.53;78.05;101518.28;4997262;28;20026;-35
2022/06/27 00:40:07;;;;;;;10.38;4.70;;;;;;;17.50;78.85;101517.91;4997512;28;20049;-35
2022/06/27 00:42:34;;;;;;;8.05;4.57;;;;;;;17.45;78.96;101520.38;4997233;28;20038;-37
2022/06/27 00:44:59;;;;;;;8.50;4.35;;;;;;;17.41;78.50;101533.06;4997519;28;20066;-34
2022/06/27 00:47:24;;;;;;;8.48;4.40;;;;;;;17.40;79.60;101523.63;4997208;28;20081;-35
2022/06/27 00:49:50;;;;;;;8.80;4.80;;;;;;;17.41;79.86;101527.84;4996999;28;20054;-35
2022/06/27 00:52:15;;;;;;;8.57;4.50;;;;;;;17.48;80.69;101531.19;4997420;28;20033;-35
2022/06/27 00:54:43;;;;;;;8.48;4.65;;;;;;;17.43;80.02;101533.63;4997203;28;20113;-35
2022/06/27 00:57:12;;;;;;;13.73;4.72;;;;;;;17.51;79.88;101530.75;4997344;28;20304;-35
2022/06/27 00:59:37;;;;;;;9.10;4.28;;;;;;;17.51;80.32;101525.53;4997211;28;20101;-35
2022/06/27 01:02:04;;;;;;;8.18;4.65;;;;;;;17.47;80.96;101516.53;4996844;28;20032;-35
2022/06/27 01:04:29;;;;;;;9.90;5.05;;;;;;;17.45;81.24;101518.56;4996894;28;20488;-35
2022/06/27 01:06:55;;;;;;;9.55;4.50;;;;;;;17.40;81.80;101523.63;4997027;28;20018;-40
2022/06/27 01:09:22;;;;;;;9.00;4.38;;;;;;;17.42;81.40;101521.59;4996263;28;20022;-34
2022/06/27 01:11:48;;;;;;;9.13;4.10;;;;;;;17.40;82.27;101522.81;4996770;28;20109;-35
2022/06/27 01:14:13;;;;;;;8.70;4.10;;;;;;;17.42;82.18;101526.03;4997347;28;20108;-35
2022/06/27 01:16:40;;;;;;;11.18;4.22;;;;;;;17.47;82.65;101526.97;4996476;28;20161;-36
2022/06/27 01:19:10;;;;;;;11.00;4.20;;;;;;;17.47;82.11;101526.19;4996644;28;20018;-34
2022/06/27 01:21:40;;;;;;;7.00;4.20;;;;;;;17.53;82.65;101527.94;4997100;28;20025;-37
2022/06/27 01:24:06;;;;;;;10.65;4.45;;;;;;;17.52;82.56;101526.31;4995292;28;20042;-34
2022/06/27 01:26:31;;;;;;;11.98;4.55;;;;;;;17.51;83.30;101535.97;4996763;28;20034;-34
2022/06/27 01:28:57;;;;;;;8.43;4.38;;;;;;;17.48;83.56;101533.81;4996567;28;20029;-36
2022/06/27 01:31:23;;;;;;;11.45;4.38;;;;;;;17.48;81.61;101536.41;4996918;28;20117;-35
2022/06/27 01:33:48;;;;;;;7.70;3.85;;;;;;;17.50;80.96;101528.38;4996340;28;20057;-35
2022/06/27 01:38:57;;;;;;;10.52;4.38;;;;;;;17.63;77.08;101538.69;4996578;28;20128;-35
2022/06/27 01:41:23;;;;;;;9.77;4.30;;;;;;;17.59;76.76;101535.72;4996424;28;20022;-37
2022/06/27 01:43:49;;;;;;;8.02;4.65;;;;;;;17.68;76.17;101545.91;4996177;28;20041;-34
2022/06/27 01:46:15;;;;;;;8.60;4.10;;;;;;;17.66;76.80;101538.25;4996015;28;20110;-35
2022/06/27 01:48:40;;;;;;;10.27;4.03;;;;;;;17.71;77.15;101543.66;4995907;28;20125;-34
2022/06/27 01:51:10;;;;;;;8.63;4.55;;;;;;;17.55;76.46;101536.34;4995927;28;20450;-35
2022/06/27 01:53:38;;;;;;;10.82;4.72;;;;;;;17.58;76.48;101530.72;4996282;28;20034;-35
2022/06/27 01:56:05;;;;;;;8.23;4.30;;;;;;;17.63;77.03;101525.63;4995924;28;20469;-35
2022/06/27 01:58:31;;;;;;;7.55;4.00;;;;;;;17.69;77.23;101522.16;4996298;28;20034;-35
2022/06/27 02:00:57;;;;;;;6.45;3.85;;;;;;;17.53;79.28;101514.88;4995815;28;20038;-35
2022/06/27 02:03:23;;;;;;;7.70;4.00;;;;;;;17.32;80.97;101518.66;4995750;28;20030;-35
2022/06/27 02:05:51;;;;;;;7.78;4.00;;;;;;;17.37;82.03;101522.22;4995754;28;20029;-34
2022/06/27 02:08:20;;;;;;;7.72;4.38;;;;;;;17.50;81.47;101521.31;4995626;28;20035;-35
2022/06/27 02:10:45;;;;;;;11.07;4.05;;;;;;;17.56;79.80;101520.47;4995585;28;20026;-34
2022/06/27 02:13:12;;;;;;;8.77;4.40;;;;;;;17.62;79.95;101500.50;4995861;28;20033;-36
2022/06/27 02:16:04;;;;;;;11.98;3.90;;;;;;;17.44;81.15;101501.28;4995557;28;20026;-35
2022/06/27 02:18:30;;;;;;;7.55;4.43;;;;;;;17.50;80.83;101497.03;4995756;28;20444;-35
2022/06/27 02:20:56;;;;;;;11.57;4.28;;;;;;;17.53;80.67;101499.19;4995651;28;20018;-37
2022/06/27 02:23:21;;;;;;;6.72;4.13;;;;;;;17.45;81.96;101500.25;4995352;28;20022;-35
2022/06/27 02:25:48;;;;;;;8.30;4.38;;;;;;;17.47;80.15;101492.22;4995660;28;20030;-35
2022/06/27 02:28:15;;;;;;;8.73;4.35;;;;;;;17.53;81.35;101486.94;4994705;28;20081;-35
2022/06/27 02:30:40;;;;;;;10.63;4.50;;;;;;;17.32;80.71;101493.34;4995803;28;20035;-34
2022/06/27 02:33:06;;;;;;;7.82;4.28;;;;;;;17.34;79.46;101493.13;4995389;28;20072;-36
2022/06/27 02:35:31;;;;;;;11.90;4.55;;;;;;;17.24;81.46;101495.44;4995545;28;20465;-35
2022/06/27 02:37:57;;;;;;;8.52;4.30;;;;;;;17.32;82.18;101479.47;4995441;28;20357;-35
2022/06/27 02:40:23;;;;;;;9.48;4.10;;;;;;;17.13;83.25;101476.81;4995329;28;20457;-36
2022/06/27 02:42:52;;;;;;;7.57;4.10;;;;;;;17.18;84.17;101470.19;4995404;28;20429;-38
2022/06/27 02:45:18;;;;;;;11.65;4.45;;;;;;;16.91;84.72;101481.59;4995125;28;20114;-36
2022/06/27 02:47:47;;;;;;;7.32;4.18;;;;;;;16.69;86.47;101472.50;4994709;28;20173;-36
2022/06/27 02:50:13;;;;;;;10.68;4.80;;;;;;;16.73;84.74;101462.44;4994813;28;20034;-37
2022/06/27 02:52:47;;;;;;;11.15;4.50;;;;;;;16.91;85.80;101462.53;4994843;28;20026;-36
2022/06/27 02:55:15;;;;;;;9.98;4.70;;;;;;;16.95;84.66;101468.16;4994965;28;20022;-35
2022/06/27 02:58:00;;;;;;;8.23;4.30;;;;;;;16.90;84.95;101472.19;4994933;28;20476;-36
2022/06/27 03:00:32;;;;;;;10.73;4.43;;;;;;;16.98;84.03;101462.50;4994736;28;20112;-35
2022/06/27 03:02:59;;;;;;;8.50;4.57;;;;;;;16.94;84.48;101461.31;4995167;28;20038;-35
2022/06/27 03:05:24;;;;;;;11.18;4.30;;;;;;;16.87;85.48;101459.56;4994926;28;20277;-37
2022/06/27 03:07:50;;;;;;;8.48;4.30;;;;;;;16.67;86.04;101444.00;4995142;28;20097;-35
2022/06/27 03:10:16;;;;;;;9.02;4.50;;;;;;;16.66;86.73;101450.22;4995128;28;20023;-35
2022/06/27 03:12:42;;;;;;;8.80;4.60;;;;;;;16.61;87.52;101442.22;4994530;28;20061;-37
2022/06/27 03:15:08;;;;;;;9.02;4.63;;;;;;;16.56;87.67;101429.00;4994948;28;20022;-35
2022/06/27 03:17:34;;;;;;;11.30;4.57;;;;;;;16.52;87.04;101433.06;4994738;28;20496;-36
2022/06/27 03:19:59;;;;;;;7.82;4.60;;;;;;;16.46;87.22;101436.50;4993206;28;20108;-36
2022/06/27 03:22:25;;;;;;;11.65;5.28;;;;;;;16.38;87.44;101439.38;4994679;28;20054;-35
2022/06/27 03:24:50;;;;;;;10.93;5.00;;;;;;;16.38;87.38;101431.53;4994295;28;20141;-36
2022/06/27 03:27:15;;;;;;;9.63;5.15;;;;;;;16.30;88.29;101429.97;4994294;28;20077;-36
2022/06/27 03:29:41;;;;;;;9.98;4.65;;;;;;;16.33;88.09;101431.34;4994213;28;20065;-36
2022/06/27 03:32:06;;;;;;;12.75;4.88;;;;;;;16.31;87.71;101433.38;4994302;28;20504;-35
2022/06/27 03:34:32;;;;;;;12.43;4.82;;;;;;;16.32;88.34;101433.16;4994427;28;20085;-36
2022/06/27 03:36:57;;;;;;;12.27;5.10;;;;;;;16.28;89.10;101431.19;4994440;28;20026;-36
2022/06/27 03:39:23;;;;;;;9.32;5.50;;;;;;;16.20;89.34;101438.25;4993502;28;20072;-36
2022/06/27 03:41:49;;;;;;;11.75;5.10;;;;;;;16.26;90.39;101435.81;4994346;28;20022;-36
2022/06/27 03:44:14;;;;;;;10.82;4.70;;;;;;;16.21;89.45;101432.00;4994105;28;20039;-35
2022/06/27 03:46:40;;;;;;;8.48;4.85;;;;;;;16.29;89.00;101441.41;4994354;28;20026;-37
2022/06/27 03:51:50;;;;;;;12.40;4.85;;;;;;;16.32;90.37;101424.56;4994280;28;20109;-35
2022/06/27 03:54:16;;;;;;;10.88;4.78;;;;;;;16.29;90.39;101440.63;4994051;28;20026;-35
2022/06/27 03:56:41;;;;;;;8.20;4.70;;;;;;;16.35;90.56;101451.00;4994215;28;20037;-35
2022/06/27 03:59:07;;;;;;;11.90;5.18;;;;;;;16.33;90.81;101439.19;4993829;28;20058;-35
2022/06/27 04:01:32;;;;;;;14.10;5.28;;;;;;;16.20;90.53;101440.84;4994261;28;20381;-35
2022/06/27 04:03:58;;;;;;;9.48;5.32;;;;;;;16.21;91.02;101441.66;4993941;28;20381;-36
2022/06/27 04:06:23;;;;;;;10.50;5.05;;;;;;;16.24;90.64;101433.41;4994141;28;20031;-35
2022/06/27 04:08:49;;;;;;;8.15;4.72;;;;;;;16.22;91.08;101425.00;4993852;28;20484;-35
2022/06/27 04:11:14;;;;;;;7.57;4.93;;;;;;;16.30;91.32;101421.34;4993665;28;20026;-36
2022/06/27 04:13:39;;;;;;;11.63;4.95;;;;;;;16.36;90.94;101407.47;4994189;28;20053;-35
2022/06/27 04:16:05;;;;;;;10.30;5.35;;;;;;;16.46;89.76;101413.03;4993857;28;20338;-36
2022/06/27 04:18:31;;;;;;;9.00;4.80;;;;;;;16.56;88.80;101413.34;4994290;28;20030;-36
2022/06/27 04:20:56;;;;;;;9.73;5.00;;;;;;;16.54;88.75;101404.13;4993695;28;20018;-35
2022/06/27 04:23:21;;;;;;;12.38;5.25;;;;;;;16.74;88.67;101420.44;4993967;28;20029;-36
2022/06/27 04:25:47;;;;;;;9.63;4.88;;;;;;;16.84;87.52;101430.47;4992522;28;20061;-35
2022/06/27 04:28:13;;;;;;;9.45;4.78;;;;;;;16.98;86.74;101431.97;4993641;28;20040;-35
2022/06/27 04:30:40;;;;;;;8.63;5.00;;;;;;;17.04;86.14;101438.94;4994061;28;20489;-36
2022/06/27 04:33:07;;;;;;;10.35;5.50;;;;;;;17.24;85.97;101436.16;4993874;28;20118;-36
2022/06/27 04:35:32;;;;;;;8.52;5.00;;;;;;;17.50;85.47;101457.81;4993911;28;20361;-36
2022/06/27 04:37:58;;;;;;;9.38;5.40;;;;;;;17.59;83.35;101448.69;4993585;28;20109;-35
2022/06/27 04:40:23;;;;;;;11.18;5.40;;;;;;;17.72;82.34;101445.13;4993864;28;20035;-36
2022/06/27 04:42:49;;;;;;;11.57;5.28;;;;;;;17.69;81.96;101435.09;4993463;28;20030;-36
2022/06/27 04:45:15;;;;;;;9.95;5.47;;;;;;;17.58;83.98;101431.41;4993765;28;20029;-35
2022/06/27 04:47:41;;;;;;;9.77;5.32;;;;;;;17.46;86.26;101423.47;4993614;28;20034;-36
2022/06/27 04:50:09;;;;;;;11.75;5.57;;;;;;;17.29;87.00;101420.66;4993459;28;20488;-36
2022/06/27 04:52:35;;;;;;;9.23;5.70;;;;;;;17.29;85.03;101425.03;4996679;28;20034;-36
2022/06/27 04:55:00;;;;;;;10.57;5.45;;;;;;;17.33;83.95;101418.41;4997288;28;20474;-35
2022/06/27 04:57:27;;;;;;;7.47;5.00;;;;;;;17.16;85.09;101407.69;4995651;28;20393;-36
2022/06/27 04:59:52;;;;;;;10.93;5.00;;;;;;;17.21;85.64;101394.00;4997198;28;20038;-36
2022/06/27 05:02:18;;;;;;;9.70;5.00;;;;;;;17.24;86.65;101383.13;4997527;28;20057;-35
2022/06/27 05:04:44;;;;;;;9.52;5.22;;;;;;;17.27;86.29;101370.44;4997392;28;20042;-35
2022/06/27 05:07:09;;;;;;;7.70;5.03;;;;;;;17.20;86.17;101368.88;4996982;28;20030;-36
2022/06/27 05:09:34;;;;;;;12.88;5.35;;;;;;;17.27;86.57;101378.25;4996800;28;20027;-38
2022/06/27 05:12:00;;;;;;;10.88;5.50;;;;;;;17.22;86.68;101382.53;4996929;28;20381;-36
2022/06/27 05:14:25;;;;;;;8.25;4.93;;;;;;;17.23;86.56;101381.50;4997123;28;20377;-35
2022/06/27 05:16:51;;;;;;;10.18;5.47;;;;;;;17.20;86.12;101390.56;4996637;28;20469;-35
2022/06/27 05:19:16;;;;;;;11.73;5.28;;;;;;;17.28;85.45;101392.13;4996448;28;20466;-35
2022/06/27 05:21:42;;;;;;;8.95;5.00;;;;;;;17.24;87.99;101386.53;4996753;28;20049;-35
2022/06/27 05:24:08;;;;;;;11.13;5.32;;;;;;;17.27;88.23;101395.75;4996427;28;20027;-35
2022/06/27 05:26:33;;;;;;;10.80;6.30;;;;;;;17.29;84.58;101415.41;4996586;28;20496;-35
2022/06/27 05:29:01;;;;;;;14.63;5.70;;;;;;;17.42;83.71;101413.69;4996475;28;20059;-36
2022/06/27 05:31:27;;;;;;;11.65;5.72;;;;;;;17.64;85.12;101398.38;4996531;28;20503;-36
2022/06/27 05:33:52;;;;;;;14.57;5.55;;;;;;;17.75;84.97;101405.47;4996772;28;20023;-35
2022/06/27 05:36:19;;;;;;;11.65;5.57;;;;;;;17.79;82.70;101409.28;4996437;28;20512;-35
2022/06/27 05:38:44;;;;;;;10.18;5.63;;;;;;;17.83;81.24;101404.41;4996219;28;20413;-35
2022/06/27 05:41:10;;;;;;;10.35;5.60;;;;;;;18.00;81.35;101405.41;4996019;28;20038;-36
2022/06/27 05:43:35;;;;;;;9.65;5.90;;;;;;;18.21;81.67;101410.16;4996232;28;20026;-35
2022/06/27 05:46:01;;;;;;;10.88;5.68;;;;;;;18.49;81.84;101424.44;4996281;28;20029;-35
2022/06/27 05:48:26;;;;;;;9.30;5.63;;;;;;;18.49;79.45;101422.63;4995953;28;20566;-36
2022/06/27 05:50:51;;;;;;;10.70;5.80;;;;;;;18.54;78.43;101421.97;4996096;28;20026;-36
2022/06/27 05:53:17;;;;;;;11.73;5.32;;;;;;;18.69;78.74;101429.41;4995735;28;20053;-36
2022/06/27 05:55:45;;;;;;;11.80;5.82;;;;;;;18.51;77.33;101455.66;4996023;28;20041;-35
2022/06/27 05:58:12;;;;;;;11.13;5.70;;;;;;;18.41;78.67;101450.94;4996192;28;20409;-35
2022/06/27 06:00:37;;;;;;;13.48;5.60;;;;;;;18.46;78.46;101461.53;4996153;28;20069;-34
2022/06/27 06:03:03;;;;;;;9.73;5.85;;;;;;;18.60;79.23;101465.56;4994495;28;20418;-35
2022/06/27 06:05:29;;;;;;;10.95;5.80;;;;;;;18.66;78.53;101475.13;4994300;28;20030;-35
2022/06/27 06:08:00;;;;;;;14.73;5.55;;;;;;;18.68;76.81;101488.03;4995840;28;20026;-36
2022/06/27 06:10:26;;;;;;;15.90;5.95;;;;;;;18.63;76.98;101480.81;4995946;28;20031;-36
2022/06/27 06:12:51;;;;;;;12.75;6.32;;;;;;;18.46;77.32;101491.13;4978228;28;20034;-36
2022/06/27 06:15:17;;;;;;;11.15;6.15;;;;;;;18.32;78.70;101492.31;4995907;28;20457;-36
2022/06/27 06:17:42;;;;;;;11.23;6.18;;;;;;;18.26;78.97;101498.44;4995062;28;20053;-36
2022/06/27 06:20:08;;;;;;;12.32;6.35;;;;;;;18.24;79.30;101487.38;4996211;28;20034;-36
2022/06/27 06:22:34;;;;;;;11.93;6.72;;;;;;;18.29;79.54;101484.09;4995321;28;20121;-36
2022/06/27 06:25:20;;;;;;;10.10;6.40;;;;;;;18.23;79.63;101491.81;4995151;28;20555;-36
2022/06/27 06:27:45;;;;;;;17.67;7.07;;;;;;;18.24;80.01;101490.81;4994908;28;20049;-37
2022/06/27 06:30:12;;;;;;;12.00;6.75;;;;;;;18.23;80.64;101498.88;4995444;28;20022;-35
2022/06/27 06:32:38;;;;;;;17.25;7.03;;;;;;;18.19;80.38;101484.66;4995241;28;20027;-37
2022/06/27 06:35:05;;;;;;;13.43;7.50;;;;;;;18.20;79.96;101488.84;4995051;28;20495;-37
2022/06/27 06:37:31;;;;;;;14.18;7.72;;;;;;;18.15;80.23;101470.38;4993671;28;20027;-35
2022/06/27 06:39:57;;;;;;;15.23;8.13;;;;;;;18.03;80.33;101478.19;4994442;28;20022;-36
2022/06/27 06:42:23;;;;;;;16.67;7.75;;;;;;;18.14;80.11;101498.38;4977385;28;20022;-35
2022/06/27 06:44:49;;;;;;;10.77;6.65;;;;;;;18.11;80.57;101496.19;4995815;28;20019;-37
2022/06/27 06:47:15;;;;;;;12.15;7.15;;;;;;;18.24;80.29;101513.53;4994889;28;20145;-36
2022/06/27 06:49:41;;;;;;;16.48;7.80;;;;;;;18.25;80.25;101523.00;4993590;28;20050;-36
2022/06/27 06:52:06;;;;;;;13.70;7.32;;;;;;;18.36;80.77;101522.25;4994843;28;20029;-35
2022/06/27 06:54:32;;;;;;;13.65;8.10;;;;;;;18.41;80.60;101535.50;4993882;28;20026;-36
2022/06/27 06:56:58;;;;;;;15.25;7.68;;;;;;;18.41;81.38;101547.75;4994956;28;20029;-36
2022/06/27 06:59:23;;;;;;;14.65;7.22;;;;;;;18.39;81.22;101524.44;4995231;28;20019;-36
2022/06/27 07:01:50;;;;;;;10.73;7.53;;;;;;;18.26;81.15;101501.84;4994731;28;20057;-37
2022/06/27 07:04:16;;;;;;;14.55;7.63;;;;;;;18.47;80.64;101512.84;4994639;28;20026;-35
2022/06/27 07:06:43;;;;;;;11.80;8.13;;;;;;;18.44;79.73;101506.25;4994515;28;20062;-35
2022/06/27 07:09:08;;;;;;;14.85;7.38;;;;;;;18.62;79.43;101494.94;4994754;28;20022;-36
2022/06/27 07:11:37;;;;;;;13.48;7.20;;;;;;;18.74;81.16;101476.69;4995094;28;20076;-37
2022/06/27 07:14:03;;;;;;;15.02;7.47;;;;;;;18.74;81.64;101450.50;4994652;28;20030;-35
2022/06/27 07:16:29;;;;;;;14.00;7.88;;;;;;;18.71;81.19;101461.38;4993797;28;20022;-36
2022/06/27 07:18:56;;;;;;;14.18;7.65;;;;;;;18.69;82.53;101453.75;4994675;28;20076;-36
2022/06/27 07:21:23;;;;;;;17.08;7.63;;;;;;;18.75;82.43;101449.47;4993302;28;20022;-34
2022/06/27 07:23:50;;;;;;;17.30;7.97;;;;;;;18.72;82.86;101448.06;4994017;28;20035;-35
2022/06/27 07:26:17;;;;;;;14.73;7.63;;;;;;;18.81;84.10;101451.19;4994417;28;20074;-37
2022/06/27 07:28:43;;;;;;;17.58;8.60;;;;;;;18.93;84.07;101436.31;4993680;28;20037;-37
2022/06/27 07:31:11;;;;;;;18.25;8.10;;;;;;;18.92;83.85;101426.03;4994159;28;20023;-35
2022/06/27 07:33:38;;;;;;;18.55;8.25;;;;;;;18.84;82.75;101453.34;4992517;28;20031;-36
2022/06/27 07:36:06;;;;;;;10.80;7.25;;;;;;;18.92;80.43;101460.88;4994713;28;20480;-36
2022/06/27 07:38:33;;;;;;;15.07;7.80;;;;;;;18.99;79.95;101460.78;4993882;28;20068;-36
2022/06/27 07:40:59;;;;;;;15.38;7.93;;;;;;;19.11;79.60;101466.03;4994388;28;20073;-36
2022/06/27 07:43:25;;;;;;;14.82;7.53;;;;;;;19.26;80.00;101455.09;4994112;28;20018;-37
2022/06/27 07:45:51;;;;;;;12.65;7.70;;;;;;;19.22;81.04;101467.06;4994011;28;20033;-35
2022/06/27 07:48:20;;;;;;;15.25;7.80;;;;;;;19.21;80.88;101466.25;4993451;28;20093;-37
2022/06/27 07:50:45;;;;;;;13.48;7.50;;;;;;;19.38;81.44;101471.63;4994553;28;20053;-36
2022/06/27 07:53:13;;;;;;;15.23;7.95;;;;;;;19.47;80.26;101477.31;4994209;28;20105;-36
2022/06/27 07:55:49;;;;;;;15.25;8.27;;;;;;;19.49;78.05;101480.50;4992592;28;20359;-36
2022/06/27 07:58:18;;;;;;;14.40;7.80;;;;;;;19.74;79.27;101490.78;4994135;28;20023;-37
2022/06/27 08:00:48;;;;;;;16.00;7.90;;;;;;;20.05;78.13;101494.78;4993819;28;20480;-35
2022/06/27 08:05:58;;;;;;;13.57;7.40;;;;;;;19.96;76.67;101491.72;4994764;28;20045;-36
2022/06/27 08:08:24;;;;;;;11.48;7.00;;;;;;;19.78;77.57;101499.75;4993853;28;20057;-36
2022/06/27 08:10:50;;;;;;;11.43;7.30;;;;;;;19.67;76.16;101506.59;4993716;28;20073;-35
2022/06/27 08:13:16;;;;;;;16.95;6.97;;;;;;;19.67;76.25;101514.47;4994034;28;20054;-37
2022/06/27 08:15:42;;;;;;;15.57;7.00;;;;;;;19.75;77.02;101511.50;4993755;28;20437;-35
2022/06/27 08:18:08;;;;;;;13.00;7.25;;;;;;;19.68;76.79;101523.13;4993734;28;20502;-39
2022/06/27 08:20:35;;;;;;;14.20;7.05;;;;;;;19.79;78.10;101519.72;4993942;28;20029;-36
2022/06/27 08:23:03;;;;;;;14.57;6.80;;;;;;;19.98;76.31;101517.75;4993957;28;20084;-36
2022/06/27 08:25:29;;;;;;;16.15;7.00;;;;;;;19.97;77.00;101516.97;4993973;28;20461;-36
2022/06/27 08:27:55;;;;;;;16.92;7.10;;;;;;;20.03;75.51;101516.03;4996212;28;20426;-37
2022/06/27 08:30:25;;;;;;;17.38;6.90;;;;;;;20.09;73.71;101503.03;4997393;28;20061;-36
2022/06/27 08:32:56;;;;;;;10.88;6.30;;;;;;;20.05;74.53;101500.03;4997730;28;20062;-35
2022/06/27 08:35:25;;;;;;;15.40;6.50;;;;;;;20.02;74.55;101495.25;4997646;28;20086;-37
2022/06/27 08:37:50;;;;;;;12.95;6.22;;;;;;;20.14;74.02;101484.72;4997796;28;20097;-37
2022/06/27 08:40:20;;;;;;;13.88;6.55;;;;;;;20.10;74.91;101500.16;4997885;28;20014;-38
2022/06/27 08:42:46;;;;;;;12.07;6.47;;;;;;;20.25;73.13;101518.81;4997296;28;20036;-36
2022/06/27 08:45:16;;;;;;;17.55;6.20;;;;;;;20.44;70.89;101522.06;4997184;28;20376;-36
2022/06/27 08:47:42;;;;;;;14.70;6.05;;;;;;;20.57;69.49;101501.81;4997580;28;20496;-37
2022/06/27 08:50:09;;;;;;;10.73;6.00;;;;;;;20.47;70.90;101511.09;4995775;28;20057;-35
2022/06/27 08:52:39;;;;;;;10.15;5.60;;;;;;;20.42;68.77;101520.69;4997405;28;20026;-38
2022/06/27 08:55:09;;;;;;;9.38;5.50;;;;;;;20.27;67.90;101508.88;4997279;28;20500;-35
2022/06/27 08:57:36;;;;;;;11.07;5.35;;;;;;;20.22;69.27;101516.63;4996862;28;20026;-37
2022/06/27 09:00:06;;;;;;;9.98;5.40;;;;;;;20.21;67.98;101548.38;4997269;28;20465;-36
2022/06/27 09:02:37;;;;;;;11.68;5.07;;;;;;;20.18;69.18;101551.47;4997240;28;20023;-37
2022/06/27 09:05:03;;;;;;;10.13;4.70;;;;;;;20.27;68.75;101557.94;4997073;28;20075;-41
2022/06/27 09:07:52;;;;;;;13.48;4.88;;;;;;;20.19;69.15;101555.69;4996695;28;20026;-36
2022/06/27 09:10:36;;;;;;;10.00;4.95;;;;;;;20.36;68.36;101553.13;4989096;28;20043;-37
2022/06/27 09:13:09;;;;;;;9.23;5.63;;;;;;;20.40;68.40;101535.88;4996978;28;20366;-35
2022/06/27 09:15:54;;;;;;;10.95;4.53;;;;;;;20.22;68.43;101542.09;4996710;28;20018;-37
2022/06/27 09:18:31;;;;;;;8.45;4.50;;;;;;;20.12;68.77;101549.78;4995268;28;20067;-35
2022/06/27 09:21:03;;;;;;;10.38;4.63;;;;;;;20.15;69.71;101539.59;4996873;28;20461;-36
2022/06/27 09:23:49;;;;;;;12.70;5.05;;;;;;;20.32;70.96;101544.13;4996839;28;20117;-35
2022/06/27 09:26:31;;;;;;;13.55;5.35;;;;;;;20.42;70.29;101544.31;4995227;28;20080;-35
2022/06/27 09:29:11;;;;;;;10.55;5.22;;;;;;;20.23;71.64;101548.94;4996732;28;20038;-36
2022/06/27 09:31:42;;;;;;;12.05;5.78;;;;;;;20.17;71.71;101560.34;4996658;28;20041;-36
2022/06/27 09:34:23;;;;;;;12.60;5.63;;;;;;;20.40;71.85;101554.25;4996696;28;20027;-37
2022/06/27 09:37:03;;;;;;;13.70;5.38;;;;;;;20.20;73.96;101558.09;4995016;28;20026;-36
2022/06/27 09:39:37;;;;;;;12.93;5.57;;;;;;;20.21;73.36;101546.56;4996202;28;20377;-36
2022/06/27 09:42:07;;;;;;;11.80;5.28;;;;;;;20.28;70.31;101551.66;4996754;28;20037;-37
2022/06/27 09:44:35;;;;;;;12.05;5.28;;;;;;;20.34;70.35;101542.88;4996437;28;20092;-37
2022/06/27 09:47:03;;;;;;;9.15;4.80;;;;;;;20.28;68.19;101551.66;4996118;28;20022;-36
2022/06/27 09:49:38;;;;;;;11.23;4.88;;;;;;;20.38;69.35;101566.81;4995902;28;20049;-37
2022/06/27 09:52:09;;;;;;;7.47;4.18;;;;;;;20.44;71.90;101581.63;4996587;28;20028;-37
2022/06/27 09:54:37;;;;;;;10.45;4.82;;;;;;;20.31;70.22;101576.63;4996160;28;20454;-36
2022/06/27 09:57:03;;;;;;;8.68;4.72;;;;;;;20.41;68.91;101569.78;4995928;28;20022;-37
2022/06/27 09:59:29;;;;;;;9.02;4.60;;;;;;;20.59;68.06;101571.44;4996065;28;20381;-37
2022/06/27 10:01:58;;;;;;;16.50;4.82;;;;;;;21.10;66.47;101561.84;4996041;28;20060;-37
2022/06/27 10:04:29;;;;;;;16.58;5.65;;;;;;;21.23;65.76;101552.03;4996185;28;20489;-39
2022/06/27 10:06:57;;;;;;;10.57;5.50;;;;;;;21.35;64.36;101561.44;4994372;28;20026;-36
2022/06/27 10:09:25;;;;;;;13.57;5.82;;;;;;;21.29;64.41;101558.97;4996257;28;20033;-36
2022/06/27 10:12:25;;;;;;;12.90;5.13;;;;;;;21.30;64.53;101557.94;4995464;28;20057;-37
2022/06/27 10:15:09;;;;;;;15.50;5.20;;;;;;;21.50;63.33;101555.66;4991131;28;20034;-38
2022/06/27 10:17:43;;;;;;;15.50;5.32;;;;;;;21.30;64.90;101552.69;4994033;28;20030;-36
2022/06/27 10:20:19;;;;;;;9.95;4.72;;;;;;;20.98;64.93;101547.97;4996074;28;20056;-35
2022/06/27 10:22:47;;;;;;;11.93;5.20;;;;;;;20.93;66.61;101546.06;4995455;28;20041;-37
2022/06/27 10:25:27;;;;;;;8.82;4.90;;;;;;;21.07;65.13;101545.75;4995282;28;20022;-38
2022/06/27 10:28:12;;;;;;;14.02;5.82;;;;;;;21.10;64.37;101538.19;4995334;28;20026;-37
2022/06/27 10:30:44;;;;;;;8.05;4.97;;;;;;;21.10;65.14;101540.03;4995112;28;20034;-37
2022/06/27 10:33:19;;;;;;;9.77;4.95;;;;;;;21.01;65.56;101534.38;4994765;28;20033;-37
2022/06/27 10:36:02;;;;;;;9.30;4.20;;;;;;;21.00;65.12;101539.84;4993873;28;20041;-37
2022/06/27 10:38:34;;;;;;;8.68;3.95;;;;;;;20.94;65.20;101544.22;4993736;28;20087;-37
2022/06/27 10:41:05;;;;;;;8.20;4.60;;;;;;;20.79;64.53;101550.00;4993725;28;20023;-38
2022/06/27 10:43:48;;;;;;;8.98;4.45;;;;;;;20.90;64.86;101545.72;4993786;28;20466;-37
2022/06/27 10:46:13;;;;;;;9.60;4.20;;;;;;;20.76;65.09;101539.19;4993885;28;20053;-37
2022/06/27 10:48:45;;;;;;;8.90;4.72;;;;;;;20.87;66.31;101540.97;4994124;28;20104;-37
2022/06/27 10:51:22;;;;;;;12.38;4.90;;;;;;;20.93;66.70;101538.16;4995092;28;20038;-36
2022/06/27 10:53:48;;;;;;;9.10;4.60;;;;;;;20.84;67.87;101531.72;4994999;28;20030;-36
2022/06/27 10:56:26;;;;;;;11.05;5.03;;;;;;;20.90;71.53;101541.28;4995476;28;20057;-36
2022/06/27 10:58:51;;;;;;;10.40;5.15;;;;;;;20.80;69.08;101546.38;4994656;28;20069;-37
2022/06/27 11:01:18;;;;;;;13.38;4.70;;;;;;;20.67;69.32;101547.44;4994995;28;20042;-36
2022/06/27 11:03:44;;;;;;;8.93;4.88;;;;;;;20.56;73.35;101540.41;4994898;28;20037;-36
2022/06/27 11:06:13;;;;;;;8.95;4.60;;;;;;;20.66;73.62;101551.09;4995089;28;20022;-36
2022/06/27 11:08:40;;;;;;;14.32;5.32;;;;;;;20.65;72.36;101546.88;4994871;28;20029;-35
2022/06/27 11:11:06;;;;;;;11.65;4.53;;;;;;;20.32;70.90;101562.50;4995012;28;20105;-36
2022/06/27 11:13:38;;;;;;;9.70;4.45;;;;;;;20.37;70.92;101546.84;4994377;28;20109;-36
2022/06/27 11:16:05;;;;;;;11.00;4.30;;;;;;;20.63;70.73;101543.69;4994730;28;20432;-38
2022/06/27 11:18:40;;;;;;;9.15;4.57;;;;;;;20.59;68.74;101547.81;4993092;28;20030;-36
2022/06/27 11:21:06;;;;;;;10.93;4.95;;;;;;;20.45;69.32;101543.84;4994996;28;20101;-34
2022/06/27 11:23:47;;;;;;;12.93;5.00;;;;;;;20.52;69.21;101560.28;4994459;28;20114;-39
2022/06/27 11:26:14;;;;;;;15.43;4.65;;;;;;;20.41;69.10;101543.53;4994643;28;20037;-36
2022/06/27 11:34:09;;;;;;;10.75;5.55;;;;;;;20.46;69.66;101554.13;4995104;28;20488;-37
2022/06/27 11:36:36;;;;;;;11.85;6.10;;;;;;;20.45;70.00;101552.50;4994147;28;20034;-35